Terminal Aerodrome Forecast
Issued by NWS Mt. Holly, NJ

Home | Current Version | Previous Version | Text Only | Print | Product List | Glossary On
Versions: 1 2 3 4 5 6 7 8 9 10 11 12 13 14 15 16 17 18 19 20 21 22 23 24 25 26 27 28
000
FTAK31 PANC 251136
TAFABE
TAF
PABE 251136Z 2512/2612 30006KT P6SM SCT120
     FM251400 25005KT P6SM VCFG FEW002 SCT120
     FM251800 22005KT P6SM BKN070
     FM260400 18012G20KT P6SM -SHRA SCT020 BKN030=

USA.gov is the U.S. government's official web portal to all federal, state and local government web resources and services.